createdAt,value
2019-03-29T00:00:08.234Z,21.87
2019-03-29T00:02:37.601Z,17.47
2019-03-29T00:05:07.055Z,21.70
2019-03-29T00:07:40.031Z,17.20
2019-03-29T00:10:08.765Z,19.77
2019-03-29T00:12:37.589Z,20.15
2019-03-29T00:15:26.139Z,17.65
2019-03-29T00:17:55.495Z,19.62
2019-03-29T00:20:24.814Z,22.90
2019-03-29T00:22:54.153Z,19.33
2019-03-29T00:25:23.542Z,21.70
2019-03-29T00:27:52.933Z,23.85
2019-03-29T00:30:22.342Z,14.43
2019-03-29T00:32:51.626Z,19.40
2019-03-29T00:35:20.947Z,21.80
2019-03-29T00:37:53.848Z,22.48
2019-03-29T00:40:21.425Z,26.33
2019-03-29T00:42:50.925Z,23.98
2019-03-29T00:45:20.235Z,24.32
2019-03-29T00:47:49.538Z,21.00
2019-03-29T00:50:18.856Z,21.90
2019-03-29T00:52:48.157Z,17.87
2019-03-29T00:55:17.479Z,18.37
2019-03-29T00:57:46.780Z,26.65
2019-03-29T01:00:16.261Z,18.67
2019-03-29T01:02:45.661Z,20.35
2019-03-29T01:05:15.137Z,24.12
2019-03-29T01:07:44.530Z,17.15
2019-03-29T01:10:14.089Z,18.25
2019-03-29T01:12:43.486Z,19.62
2019-03-29T01:15:13.957Z,21.27
2019-03-29T01:17:43.273Z,16.75
2019-03-29T01:20:13.133Z,18.10
2019-03-29T01:22:42.442Z,20.15
2019-03-29T01:25:11.846Z,24.50
2019-03-29T01:27:41.226Z,22.82
2019-03-29T01:30:11.059Z,22.75
2019-03-29T01:32:39.658Z,18.10
2019-03-29T01:35:09.588Z,19.48
2019-03-29T01:37:38.992Z,18.37
2019-03-29T01:40:09.137Z,25.62
2019-03-29T01:42:38.969Z,19.75
2019-03-29T01:45:09.089Z,20.50
2019-03-29T01:47:38.503Z,14.75
2019-03-29T01:50:08.176Z,16.87
2019-03-29T01:52:37.784Z,22.67
2019-03-29T01:55:07.856Z,14.43
2019-03-29T01:57:36.449Z,13.88
2019-03-29T02:00:06.455Z,14.38
2019-03-29T02:02:35.834Z,14.43
2019-03-29T02:05:06.138Z,21.95
2019-03-29T02:07:35.687Z,15.13
2019-03-29T02:10:06.893Z,18.07
2019-03-29T02:12:36.213Z,14.55
2019-03-29T02:15:06.293Z,18.77
2019-03-29T02:17:35.685Z,13.50
2019-03-29T02:20:05.685Z,15.85
2019-03-29T02:22:34.997Z,11.53
2019-03-29T02:25:04.754Z,15.72
2019-03-29T02:27:34.157Z,13.00
2019-03-29T02:30:04.546Z,9.70
2019-03-29T02:32:34.297Z,15.08
2019-03-29T02:35:03.845Z,10.10
2019-03-29T02:37:33.217Z,10.90
2019-03-29T02:40:01.817Z,18.10
2019-03-29T02:42:31.123Z,12.55
2019-03-29T02:45:00.633Z,15.80
2019-03-29T02:47:30.167Z,14.13
2019-03-29T02:49:59.466Z,14.83
2019-03-29T02:52:28.838Z,11.55
2019-03-29T02:54:58.229Z,12.65
2019-03-29T02:57:27.527Z,14.10
2019-03-29T02:59:56.829Z,12.37
2019-03-29T03:02:26.708Z,10.55
2019-03-29T03:04:56.303Z,9.88
2019-03-29T03:07:25.605Z,11.10
2019-03-29T03:09:54.942Z,9.65
2019-03-29T03:12:24.276Z,8.95
2019-03-29T03:14:53.618Z,8.13
2019-03-29T03:17:22.917Z,11.25
2019-03-29T03:19:52.312Z,15.20
2019-03-29T03:22:21.714Z,9.35
2019-03-29T03:24:51.024Z,11.18
2019-03-29T03:27:20.311Z,17.02
2019-03-29T03:29:49.615Z,56.80
2019-03-29T03:32:18.912Z,29.57
2019-03-29T03:34:48.207Z,27.35
2019-03-29T03:37:17.488Z,12.93
2019-03-29T03:39:46.841Z,19.70
2019-03-29T03:42:16.210Z,24.37
2019-03-29T03:44:45.509Z,23.40
2019-03-29T03:47:14.800Z,15.70
2019-03-29T03:49:44.361Z,9.68
2019-03-29T03:52:14.001Z,11.53
2019-03-29T03:54:43.382Z,8.55
2019-03-29T03:57:13.599Z,13.32
2019-03-29T03:59:43.474Z,7.08
2019-03-29T04:02:12.775Z,11.90
2019-03-29T04:04:41.360Z,25.52
2019-03-29T04:07:10.697Z,15.00
2019-03-29T04:09:49.255Z,10.10
2019-03-29T04:12:11.302Z,10.13
2019-03-29T04:14:40.610Z,11.60
2019-03-29T04:17:09.198Z,8.53
2019-03-29T04:19:38.501Z,13.08
2019-03-29T04:22:07.842Z,10.90
2019-03-29T04:24:37.135Z,13.35
2019-03-29T04:27:06.466Z,16.73
2019-03-29T04:29:35.778Z,9.10
2019-03-29T04:32:05.155Z,11.22
2019-03-29T04:34:34.452Z,13.48
2019-03-29T04:37:03.048Z,10.75
2019-03-29T04:39:32.364Z,9.45
2019-03-29T04:42:01.674Z,9.03
2019-03-29T04:44:30.979Z,10.93
2019-03-29T04:46:59.830Z,7.70
2019-03-29T04:49:29.103Z,7.65
2019-03-29T04:51:58.769Z,18.37
2019-03-29T04:54:28.152Z,8.93
2019-03-29T04:56:57.517Z,7.62
2019-03-29T04:59:26.829Z,7.80
2019-03-29T05:01:56.129Z,15.58
2019-03-29T05:04:25.418Z,14.40
2019-03-29T05:06:54.713Z,10.50
2019-03-29T05:09:24.017Z,10.32
2019-03-29T05:11:53.322Z,8.70
2019-03-29T05:14:22.885Z,12.47
2019-03-29T05:16:52.214Z,16.97
2019-03-29T05:19:21.589Z,11.90
2019-03-29T05:21:50.889Z,10.10
2019-03-29T05:24:20.183Z,11.33
2019-03-29T05:26:49.542Z,12.58
2019-03-29T05:29:19.057Z,9.40
2019-03-29T05:31:48.354Z,9.18
2019-03-29T05:34:17.656Z,12.13
2019-03-29T05:36:47.005Z,9.25
2019-03-29T05:39:16.294Z,9.70
2019-03-29T05:41:45.633Z,8.15
2019-03-29T05:44:14.309Z,15.00
2019-03-29T05:46:43.615Z,26.25
2019-03-29T05:49:13.065Z,34.18
2019-03-29T05:51:42.442Z,37.05
2019-03-29T05:54:11.749Z,49.25
2019-03-29T05:56:41.243Z,44.75
2019-03-29T05:59:10.560Z,51.10
2019-03-29T06:01:40.239Z,31.90
2019-03-29T06:04:09.521Z,33.48
2019-03-29T06:06:39.068Z,19.10
2019-03-29T06:09:08.389Z,16.95
2019-03-29T06:11:37.684Z,13.25
2019-03-29T06:14:07.068Z,18.50
2019-03-29T06:16:39.263Z,21.57
2019-03-29T06:19:07.563Z,14.00
2019-03-29T06:21:37.110Z,14.28
2019-03-29T06:24:06.817Z,24.23
2019-03-29T06:26:36.152Z,18.85
2019-03-29T06:29:05.556Z,20.20
2019-03-29T06:31:34.917Z,19.07
2019-03-29T06:34:04.300Z,16.95
2019-03-29T06:36:34.033Z,13.72
2019-03-29T06:39:05.469Z,24.37
2019-03-29T06:41:34.161Z,22.73
2019-03-29T06:44:03.465Z,22.00
2019-03-29T06:46:32.025Z,21.77
2019-03-29T06:49:01.346Z,18.87
2019-03-29T06:51:30.642Z,18.80
2019-03-29T06:53:59.954Z,26.13
2019-03-29T06:56:28.579Z,25.53
2019-03-29T06:58:57.877Z,23.10
2019-03-29T07:01:27.176Z,29.53
2019-03-29T07:03:56.477Z,23.70
2019-03-29T07:06:25.778Z,25.23
2019-03-29T07:08:55.130Z,19.33
2019-03-29T07:11:24.525Z,18.40
2019-03-29T07:13:57.890Z,29.63
2019-03-29T07:16:24.825Z,23.43
2019-03-29T07:18:54.205Z,26.57
2019-03-29T07:21:23.650Z,19.33
2019-03-29T07:23:53.125Z,26.23
2019-03-29T07:26:22.557Z,24.33
2019-03-29T07:28:52.031Z,23.07
2019-03-29T07:31:21.469Z,21.73
2019-03-29T07:33:50.783Z,21.13
2019-03-29T07:36:20.073Z,34.13
2019-03-29T07:38:49.510Z,24.70
2019-03-29T07:41:31.119Z,29.70
2019-03-29T07:43:49.905Z,24.07
2019-03-29T07:46:19.461Z,26.03
2019-03-29T07:48:48.746Z,25.87
2019-03-29T07:51:18.102Z,25.93
2019-03-29T07:53:47.421Z,25.87
2019-03-29T07:56:16.766Z,24.10
2019-03-29T07:58:46.261Z,25.30
2019-03-29T08:01:15.557Z,23.33
2019-03-29T08:03:44.825Z,22.67
2019-03-29T08:06:14.210Z,21.63
2019-03-29T08:08:43.574Z,20.37
2019-03-29T08:11:25.509Z,22.97
2019-03-29T08:13:43.929Z,18.53
2019-03-29T08:16:13.217Z,21.53
2019-03-29T08:18:42.624Z,19.90
2019-03-29T08:21:11.938Z,17.90
2019-03-29T08:23:41.316Z,23.90
2019-03-29T08:26:10.762Z,17.13
2019-03-29T08:28:40.061Z,17.83
2019-03-29T08:31:09.609Z,15.20
2019-03-29T08:33:39.170Z,19.33
2019-03-29T08:36:07.993Z,15.20
2019-03-29T08:38:37.294Z,17.30
2019-03-29T08:41:07.666Z,23.27
2019-03-29T08:43:36.306Z,16.47
2019-03-29T08:46:05.670Z,19.53
2019-03-29T08:48:34.970Z,15.50
2019-03-29T08:51:04.361Z,17.20
2019-03-29T08:53:33.704Z,23.47
2019-03-29T08:56:03.150Z,17.73
2019-03-29T08:58:32.520Z,21.37
2019-03-29T09:01:01.897Z,19.70
2019-03-29T09:03:31.262Z,17.00
2019-03-29T09:06:00.710Z,17.70
2019-03-29T09:08:30.063Z,19.67
2019-03-29T09:10:59.482Z,23.57
2019-03-29T09:13:28.836Z,18.27
2019-03-29T09:15:58.117Z,18.80
2019-03-29T09:18:27.407Z,18.73
2019-03-29T09:20:56.693Z,18.40
2019-03-29T09:23:25.985Z,20.43
2019-03-29T09:25:55.522Z,21.63
2019-03-29T09:28:24.894Z,22.33
2019-03-29T09:30:56.617Z,13.77
2019-03-29T09:33:25.342Z,17.97
2019-03-29T09:35:54.773Z,14.43
2019-03-29T09:38:24.319Z,16.63
2019-03-29T09:40:58.673Z,17.50
2019-03-29T09:43:26.542Z,15.77
2019-03-29T09:45:55.237Z,17.27
2019-03-29T09:48:24.543Z,13.47
2019-03-29T09:50:53.972Z,15.87
2019-03-29T09:53:23.312Z,17.30
2019-03-29T09:55:53.627Z,11.10
2019-03-29T09:58:22.968Z,13.70
2019-03-29T10:00:52.401Z,9.00
2019-03-29T10:03:21.706Z,15.57
2019-03-29T10:05:51.006Z,12.30
2019-03-29T10:08:20.318Z,11.27
2019-03-29T10:10:49.757Z,10.13
2019-03-29T10:13:18.477Z,9.73
2019-03-29T10:15:51.188Z,15.20
2019-03-29T10:18:19.209Z,13.77
2019-03-29T10:20:48.496Z,10.80
2019-03-29T10:23:17.789Z,10.00
2019-03-29T10:25:47.098Z,10.60
2019-03-29T10:28:16.404Z,11.53
2019-03-29T10:30:46.829Z,6.33
2019-03-29T10:33:16.450Z,8.87
2019-03-29T10:35:51.902Z,9.77
2019-03-29T10:38:18.308Z,6.23
2019-03-29T10:40:47.570Z,6.30
2019-03-29T10:43:16.867Z,7.77
2019-03-29T10:45:46.157Z,8.07
2019-03-29T10:48:15.461Z,6.00
2019-03-29T10:50:44.823Z,6.67
2019-03-29T10:53:14.218Z,6.47
2019-03-29T10:55:43.588Z,5.67
2019-03-29T10:58:13.065Z,7.27
2019-03-29T11:00:42.677Z,6.60
2019-03-29T11:03:12.053Z,8.13
2019-03-29T11:05:41.689Z,6.97
2019-03-29T11:08:12.184Z,4.60
2019-03-29T11:10:41.773Z,11.20
2019-03-29T11:13:13.980Z,8.23
2019-03-29T11:15:44.954Z,6.03
2019-03-29T11:18:14.554Z,6.27
2019-03-29T11:20:43.929Z,6.53
2019-03-29T11:23:13.439Z,6.23
2019-03-29T11:25:42.836Z,5.67
2019-03-29T11:28:12.184Z,7.27
2019-03-29T11:30:42.752Z,8.67
2019-03-29T11:33:12.677Z,6.53
2019-03-29T11:35:41.234Z,5.90
2019-03-29T11:38:10.601Z,6.77
2019-03-29T11:40:40.048Z,4.07
2019-03-29T11:43:09.457Z,3.17
2019-03-29T11:45:38.754Z,4.47
2019-03-29T11:48:09.445Z,2.33
2019-03-29T11:50:39.390Z,6.13
2019-03-29T11:53:08.733Z,8.87
2019-03-29T11:55:37.301Z,4.23
2019-03-29T11:58:06.922Z,3.67
2019-03-29T12:00:38.831Z,3.97
2019-03-29T12:03:09.396Z,3.43
2019-03-29T12:05:39.101Z,5.43
2019-03-29T12:08:07.737Z,3.63
2019-03-29T12:10:37.140Z,1.67
2019-03-29T12:13:08.486Z,8.40
2019-03-29T12:15:38.018Z,5.07
2019-03-29T12:18:07.853Z,2.17
2019-03-29T12:20:36.498Z,2.00
2019-03-29T12:23:06.005Z,3.13
2019-03-29T12:25:35.305Z,3.60
2019-03-29T12:28:03.946Z,4.13
2019-03-29T12:30:33.378Z,3.03
2019-03-29T12:33:02.973Z,5.10
2019-03-29T12:35:32.429Z,2.60
2019-03-29T12:38:01.962Z,3.30
2019-03-29T12:40:31.262Z,3.67
2019-03-29T12:43:00.648Z,4.43
2019-03-29T12:45:30.013Z,4.27
2019-03-29T12:47:58.573Z,2.83
2019-03-29T12:50:27.870Z,3.27
2019-03-29T12:52:57.149Z,3.57
2019-03-29T12:55:25.821Z,3.63
2019-03-29T12:57:55.122Z,2.30
2019-03-29T13:00:24.493Z,4.30
2019-03-29T13:02:53.795Z,4.13
2019-03-29T13:05:23.089Z,5.17
2019-03-29T13:07:53.270Z,2.40
2019-03-29T13:10:22.121Z,3.90
2019-03-29T13:12:51.665Z,4.37
2019-03-29T13:15:21.769Z,5.10
2019-03-29T13:17:51.205Z,5.47
2019-03-29T13:20:20.782Z,2.70
2019-03-29T13:22:50.192Z,2.77
2019-03-29T13:25:19.560Z,2.87
2019-03-29T13:27:48.918Z,4.07
2019-03-29T13:30:18.794Z,7.40
2019-03-29T13:32:48.219Z,4.40
2019-03-29T13:35:17.751Z,3.07
2019-03-29T13:37:47.110Z,3.40
2019-03-29T13:40:16.553Z,4.47
2019-03-29T13:42:46.172Z,3.67
2019-03-29T13:45:15.710Z,7.10
2019-03-29T13:47:44.814Z,4.50
2019-03-29T13:50:14.590Z,5.53
2019-03-29T13:52:44.102Z,1.90
2019-03-29T13:55:14.053Z,2.73
2019-03-29T13:57:43.409Z,2.07
2019-03-29T14:00:14.734Z,3.23
2019-03-29T14:02:44.181Z,3.37
2019-03-29T14:05:13.729Z,5.13
2019-03-29T14:07:43.021Z,2.10
2019-03-29T14:10:12.637Z,3.90
2019-03-29T14:12:42.029Z,5.43
2019-03-29T14:15:12.480Z,3.00
2019-03-29T14:17:41.935Z,2.80
2019-03-29T14:20:12.001Z,2.33
2019-03-29T14:22:41.381Z,6.67
2019-03-29T14:25:11.241Z,5.03
2019-03-29T14:27:40.709Z,3.13
2019-03-29T14:30:12.504Z,2.40
2019-03-29T14:32:41.857Z,6.33
2019-03-29T14:35:11.250Z,5.65
2019-03-29T14:37:39.846Z,3.30
2019-03-29T14:40:09.645Z,4.60
2019-03-29T14:42:38.238Z,3.33
2019-03-29T14:45:08.058Z,2.13
2019-03-29T14:47:42.994Z,4.30
2019-03-29T14:50:14.497Z,3.23
2019-03-29T14:52:44.197Z,3.13
2019-03-29T14:55:13.845Z,3.37
2019-03-29T14:57:42.585Z,4.87
2019-03-29T15:00:12.867Z,3.80
2019-03-29T15:02:43.066Z,3.27
2019-03-29T15:05:13.544Z,3.70
2019-03-29T15:07:43.113Z,2.33
2019-03-29T15:10:25.839Z,3.03
2019-03-29T15:12:55.355Z,3.20
2019-03-29T15:15:24.692Z,2.90
2019-03-29T15:17:54.232Z,5.57
2019-03-29T15:20:23.670Z,2.83
2019-03-29T15:22:53.037Z,3.60
2019-03-29T15:25:21.648Z,2.40
2019-03-29T15:27:52.013Z,3.17
2019-03-29T15:30:21.421Z,4.50
2019-03-29T15:32:50.966Z,2.57
2019-03-29T15:35:21.038Z,3.43
2019-03-29T15:37:50.451Z,2.43
2019-03-29T15:40:19.809Z,3.53
2019-03-29T15:42:49.093Z,4.40
2019-03-29T15:45:20.725Z,3.30
2019-03-29T15:47:49.661Z,2.53
2019-03-29T15:50:18.950Z,2.33
2019-03-29T15:52:48.327Z,3.97
2019-03-29T15:55:18.571Z,2.77
2019-03-29T15:57:47.870Z,4.00
2019-03-29T16:00:17.513Z,3.90
2019-03-29T16:02:46.896Z,4.53
2019-03-29T16:05:16.773Z,3.00
2019-03-29T16:07:46.072Z,2.77
2019-03-29T16:10:15.367Z,4.73
2019-03-29T16:12:44.002Z,5.30
2019-03-29T16:15:13.506Z,3.13
2019-03-29T16:17:42.896Z,2.53
2019-03-29T16:20:12.371Z,4.20
2019-03-29T16:22:41.753Z,3.00
2019-03-29T16:25:11.217Z,2.33
2019-03-29T16:27:39.813Z,4.70
2019-03-29T16:30:09.318Z,3.73
2019-03-29T16:32:38.654Z,2.63
2019-03-29T16:35:09.370Z,4.40
2019-03-29T16:37:38.010Z,2.33
2019-03-29T16:40:07.951Z,4.83
2019-03-29T16:42:38.553Z,5.90
2019-03-29T16:45:08.291Z,3.90
2019-03-29T16:47:37.565Z,4.07
2019-03-29T16:50:07.448Z,2.60
2019-03-29T16:52:36.813Z,3.93
2019-03-29T16:55:12.904Z,3.87
2019-03-29T16:57:37.747Z,2.93
2019-03-29T17:00:12.127Z,2.43
2019-03-29T17:02:40.111Z,1.87
2019-03-29T17:05:10.061Z,5.93
2019-03-29T17:07:39.361Z,1.87
2019-03-29T17:10:09.100Z,2.97
2019-03-29T17:12:38.430Z,2.70
2019-03-29T17:15:08.074Z,2.27
2019-03-29T17:17:40.019Z,2.97
2019-03-29T17:20:09.812Z,5.77
2019-03-29T17:22:39.096Z,2.63
2019-03-29T17:25:08.814Z,4.23
2019-03-29T17:27:38.100Z,5.63
2019-03-29T17:30:10.218Z,4.23
2019-03-29T17:32:39.503Z,4.97
2019-03-29T17:35:08.162Z,10.17
2019-03-29T17:37:37.509Z,7.60
2019-03-29T17:40:07.627Z,2.93
2019-03-29T17:42:36.913Z,6.87
2019-03-29T17:45:06.695Z,4.83
2019-03-29T17:47:36.005Z,5.20
2019-03-29T17:50:06.129Z,3.57
2019-03-29T17:52:35.498Z,9.50
2019-03-29T17:55:06.482Z,5.20
2019-03-29T17:57:35.846Z,3.50
2019-03-29T18:00:06.660Z,1.47
2019-03-29T18:02:35.942Z,3.57
2019-03-29T18:05:05.994Z,2.43
2019-03-29T18:07:36.621Z,2.20
2019-03-29T18:10:07.187Z,2.40
2019-03-29T18:12:36.589Z,1.97
2019-03-29T18:15:06.217Z,5.00
2019-03-29T18:17:35.589Z,3.47
2019-03-29T18:20:05.798Z,2.33
2019-03-29T18:22:35.109Z,1.97
2019-03-29T18:25:04.549Z,2.60
2019-03-29T18:27:33.825Z,3.93
2019-03-29T18:30:03.251Z,3.37
2019-03-29T18:32:32.794Z,3.03
2019-03-29T18:35:02.172Z,4.63
2019-03-29T18:37:31.536Z,1.93
2019-03-29T18:40:01.286Z,6.50
2019-03-29T18:42:30.581Z,4.47
2019-03-29T18:44:59.885Z,5.23
2019-03-29T18:47:29.439Z,1.80
2019-03-29T18:49:58.287Z,7.17
2019-03-29T18:52:27.569Z,1.97
2019-03-29T18:54:56.897Z,2.13
2019-03-29T18:57:26.192Z,2.63
2019-03-29T18:59:55.538Z,6.90
2019-03-29T19:02:24.839Z,2.30
2019-03-29T19:04:55.805Z,5.93
2019-03-29T19:07:28.177Z,2.33
2019-03-29T19:09:57.510Z,3.60
2019-03-29T19:12:26.093Z,3.67
2019-03-29T19:14:54.709Z,4.23
2019-03-29T19:17:24.014Z,6.67
2019-03-29T19:19:53.385Z,4.13
2019-03-29T19:22:22.738Z,4.70
2019-03-29T19:24:52.061Z,3.47
2019-03-29T19:27:21.356Z,3.47
2019-03-29T19:29:50.652Z,4.23
2019-03-29T19:32:19.966Z,2.20
2019-03-29T19:34:48.541Z,4.00
2019-03-29T19:37:17.833Z,3.97
2019-03-29T19:39:50.185Z,2.50
2019-03-29T19:42:19.665Z,3.53
2019-03-29T19:44:49.103Z,2.63
2019-03-29T19:47:18.389Z,3.97
2019-03-29T19:49:47.683Z,2.10
2019-03-29T19:52:16.980Z,4.03
2019-03-29T19:54:46.299Z,3.20
2019-03-29T19:57:15.917Z,5.63
2019-03-29T19:59:48.009Z,5.13
2019-03-29T20:02:15.743Z,2.90
2019-03-29T20:04:45.041Z,3.50
2019-03-29T20:07:14.426Z,3.07
2019-03-29T20:09:43.748Z,2.13
2019-03-29T20:12:13.114Z,1.43
2019-03-29T20:14:42.493Z,3.73
2019-03-29T20:17:11.882Z,1.57
2019-03-29T20:19:41.169Z,4.13
2019-03-29T20:22:10.465Z,3.50
2019-03-29T20:24:39.793Z,2.50
2019-03-29T20:27:09.102Z,1.83
2019-03-29T20:29:38.484Z,6.87
2019-03-29T20:32:07.765Z,2.07
2019-03-29T20:34:37.072Z,3.67
2019-03-29T20:37:08.971Z,3.83
2019-03-29T20:39:37.653Z,2.77
2019-03-29T20:42:07.043Z,2.00
2019-03-29T20:44:35.632Z,3.50
2019-03-29T20:47:04.293Z,2.63
2019-03-29T20:49:33.571Z,6.43
2019-03-29T20:52:02.887Z,3.90
2019-03-29T20:54:32.239Z,4.17
2019-03-29T20:57:01.592Z,7.97
2019-03-29T20:59:30.882Z,1.97
2019-03-29T21:01:59.461Z,3.30
2019-03-29T21:04:28.809Z,2.43
2019-03-29T21:06:58.105Z,4.47
2019-03-29T21:09:27.037Z,3.40
2019-03-29T21:11:56.365Z,4.07
2019-03-29T21:14:25.697Z,3.10
2019-03-29T21:16:55.900Z,5.57
2019-03-29T21:19:24.572Z,2.40
2019-03-29T21:21:53.898Z,5.00
2019-03-29T21:24:22.506Z,5.27
2019-03-29T21:26:51.855Z,3.03
2019-03-29T21:29:20.471Z,6.27
2019-03-29T21:31:49.997Z,1.93
2019-03-29T21:34:19.314Z,3.20
2019-03-29T21:36:48.625Z,4.93
2019-03-29T21:39:20.393Z,2.87
2019-03-29T21:41:49.673Z,3.70
2019-03-29T21:44:18.459Z,3.47
2019-03-29T21:46:47.746Z,6.53
2019-03-29T21:49:16.336Z,6.23
2019-03-29T21:51:45.957Z,6.20
2019-03-29T21:54:15.282Z,3.80
2019-03-29T21:56:44.566Z,3.53
2019-03-29T21:59:13.960Z,4.33
2019-03-29T22:01:43.525Z,9.00
2019-03-29T22:04:12.177Z,3.53
2019-03-29T22:06:43.067Z,9.07
2019-03-29T22:09:12.807Z,4.87
2019-03-29T22:11:42.125Z,7.03
2019-03-29T22:14:11.408Z,4.20
2019-03-29T22:16:40.768Z,4.60
2019-03-29T22:19:10.057Z,6.10
2019-03-29T22:21:39.330Z,3.53
2019-03-29T22:24:08.629Z,3.87
2019-03-29T22:26:37.922Z,2.97
2019-03-29T22:29:07.238Z,3.97
2019-03-29T22:31:36.517Z,5.47
2019-03-29T22:34:06.909Z,3.60
2019-03-29T22:36:35.527Z,3.10
2019-03-29T22:39:07.537Z,5.73
2019-03-29T22:41:36.880Z,3.63
2019-03-29T22:44:06.576Z,4.70
2019-03-29T22:46:35.902Z,4.30
2019-03-29T22:49:05.593Z,3.40
2019-03-29T22:51:34.921Z,6.93
2019-03-29T22:54:04.384Z,2.23
2019-03-29T22:56:33.689Z,6.90
2019-03-29T22:59:03.342Z,3.77
2019-03-29T23:01:36.030Z,4.23
2019-03-29T23:04:05.393Z,4.60
2019-03-29T23:06:34.725Z,3.37
2019-03-29T23:09:05.155Z,3.20
2019-03-29T23:11:34.535Z,4.87
2019-03-29T23:14:04.017Z,2.87
2019-03-29T23:16:33.381Z,8.73
2019-03-29T23:19:06.834Z,5.53
2019-03-29T23:21:32.972Z,2.83
2019-03-29T23:24:02.288Z,4.60
2019-03-29T23:26:31.585Z,5.57
2019-03-29T23:29:00.965Z,4.70
2019-03-29T23:31:30.362Z,2.00
2019-03-29T23:33:59.658Z,2.90
2019-03-29T23:36:28.961Z,5.33
2019-03-29T23:38:57.567Z,3.30
2019-03-29T23:41:27.098Z,3.60
2019-03-29T23:43:58.053Z,4.83
2019-03-29T23:46:27.349Z,5.97
2019-03-29T23:48:55.925Z,7.10
2019-03-29T23:51:25.218Z,3.03
2019-03-29T23:53:54.582Z,4.03
2019-03-29T23:56:23.988Z,7.73
2019-03-29T23:58:53.285Z,3.73
